Coconut Creek, Florida
Current Conditions -  °F | °C
As of 7:53 PM on Tuesday 27 Jan 2015 (Local Time) from KFXE Reporting Station
Clear Clear  
Wind Chill: 62°   Ceiling: Unl
Heat Index: 62°   Visibility: 10mi
Dew Point: 49°   Wind: 15mph
Humidity: 62%   Direction: 270°W
Pressure: 30.02"   Gusts: NA
Location:  26.26°N, 80.19°W
Report Text: KFXE 280053Z 27013KT 10SM CLR 17/09 A3002 RMK AO2 SLP168 T01670094
Loading
Personal Weather Stations






























Interactive Weather Map New forecast layout! Learn more

10-Day Weather Forecast

Advertisements
Track Severe Weather on mobile